^^
Saratoga-Weather Station Historical Data
Daily Summary for August 16, 2022 Units:  Metric    English   Both
Daily Weekly Monthly Yearly Custom
  High: Low: Average:
Temperature: 30.5 °C 14.9 °C 22 °C
Dew Point: 18.5 °C 14.1 °C 15.9 °C
Humidity: 96% 39% 72%
Wind Speed: 11.1km/h 0km/h 1.3km/h
Wind Gust: 12.9km/h - -
Wind- - SE
Pressure: 1008.5 hPa 1006.8 hPa -
Precipitation: 0.0 mm    
Historical Graphs
 
 
Tabular Data for August 16, 2022
Time Temperature Dew Point Pressure Wind Wind Speed Wind Gust Humidity Rainfall Rate (Hourly) solar
00:03 18.2 °C 16 °C 1006.8 hPa NW 1.4 km/h 3.2 km/h 87% 0.0 mm 0 W/m2
00:08 18.1 °C 15.9 °C 1006.8 hPa Calm   1.6 km/h 87% 0.0 mm 0 W/m2
00:13 18.1 °C 15.9 °C 1006.8 hPa SW 1.4 km/h 1.6 km/h 87% 0.0 mm 0 W/m2
00:18 18 °C 15.8 °C 1006.8 hPa Calm     87% 0.0 mm 0 W/m2
00:23 17.9 °C 15.9 °C 1006.8 hPa Calm   1.6 km/h 88% 0.0 mm 0 W/m2
00:28 17.9 °C 15.9 °C 1006.8 hPa SSW 1.4 km/h 4.8 km/h 88% 0.0 mm 0 W/m2
00:33 17.8 °C 15.8 °C 1006.8 hPa Calm   4.8 km/h 88% 0.0 mm 0 W/m2
00:38 17.8 °C 15.8 °C 1007.1 hPa Calm   1.6 km/h 88% 0.0 mm 0 W/m2
00:43 17.8 °C 15.8 °C 1007.1 hPa Calm     88% 0.0 mm 0 W/m2
00:48 17.8 °C 16 °C 1007.1 hPa Calm   1.6 km/h 89% 0.0 mm 0 W/m2
00:53 17.7 °C 15.9 °C 1007.1 hPa SW 1.4 km/h 1.6 km/h 89% 0.0 mm 0 W/m2
00:58 17.7 °C 15.9 °C 1007.1 hPa Calm   1.6 km/h 89% 0.0 mm 0 W/m2
01:03 17.7 °C 15.9 °C 1007.1 hPa Calm     89% 0.0 mm 0 W/m2
01:08 17.7 °C 15.9 °C 1007.1 hPa Calm   1.6 km/h 89% 0.0 mm 0 W/m2
01:13 17.6 °C 15.8 °C 1007.1 hPa Calm     89% 0.0 mm 0 W/m2
01:18 17.5 °C 15.7 °C 1007.1 hPa Calm   1.6 km/h 89% 0.0 mm 0 W/m2
01:23 17.4 °C 15.6 °C 1007.1 hPa Calm     89% 0.0 mm 0 W/m2
01:28 17.4 °C 15.6 °C 1007.1 hPa SW 1.4 km/h 1.6 km/h 89% 0.0 mm 0 W/m2
01:33 17.3 °C 15.5 °C 1007.1 hPa Calm   1.6 km/h 89% 0.0 mm 0 W/m2
01:38 17.2 °C 15.4 °C 1007.1 hPa Calm     89% 0.0 mm 0 W/m2
01:43 17.1 °C 15.4 °C 1007.1 hPa Calm   1.6 km/h 90% 0.0 mm 0 W/m2
01:48 17 °C 15.3 °C 1007.1 hPa Calm     90% 0.0 mm 0 W/m2
01:53 16.9 °C 15.2 °C 1007.1 hPa Calm     90% 0.0 mm 0 W/m2
01:58 16.8 °C 15.1 °C 1007.5 hPa Calm     90% 0.0 mm 0 W/m2
02:03 16.8 °C 15.3 °C 1007.1 hPa Calm     91% 0.0 mm 0 W/m2
02:08 16.7 °C 15.2 °C 1007.1 hPa Calm     91% 0.0 mm 0 W/m2
02:13 16.7 °C 15.2 °C 1007.1 hPa Calm     91% 0.0 mm 0 W/m2
02:18 16.6 °C 15.1 °C 1007.1 hPa Calm     91% 0.0 mm 0 W/m2
02:23 16.6 °C 15.1 °C 1007.1 hPa Calm     91% 0.0 mm 0 W/m2
02:28 16.5 °C 15.2 °C 1007.1 hPa Calm     92% 0.0 mm 0 W/m2
02:33 16.4 °C 15.1 °C 1007.1 hPa Calm   1.6 km/h 92% 0.0 mm 0 W/m2
02:38 16.4 °C 15.1 °C 1007.1 hPa Calm     92% 0.0 mm 0 W/m2
02:43 16.3 °C 15 °C 1007.1 hPa Calm     92% 0.0 mm 0 W/m2
02:48 16.3 °C 15 °C 1007.1 hPa Calm     92% 0.0 mm 0 W/m2
02:53 16.2 °C 14.9 °C 1007.1 hPa Calm     92% 0.0 mm 0 W/m2
02:58 16.2 °C 14.9 °C 1007.1 hPa Calm     92% 0.0 mm 0 W/m2
03:03 16.1 °C 15 °C 1007.5 hPa Calm     93% 0.0 mm 0 W/m2
03:08 16.1 °C 14.8 °C 1007.5 hPa Calm     92% 0.0 mm 0 W/m2
03:13 16 °C 14.7 °C 1007.5 hPa Calm     92% 0.0 mm 0 W/m2
03:18 16.1 °C 15 °C 1007.1 hPa Calm     93% 0.0 mm 0 W/m2
03:23 16.1 °C 15 °C 1007.1 hPa Calm     93% 0.0 mm 0 W/m2
03:28 16.1 °C 15 °C 1007.1 hPa Calm     93% 0.0 mm 0 W/m2
03:33 16.1 °C 15 °C 1007.1 hPa Calm     93% 0.0 mm 0 W/m2
03:38 16.2 °C 15.2 °C 1007.1 hPa Calm     94% 0.0 mm 0 W/m2
03:43 16.2 °C 15.2 °C 1007.1 hPa Calm     94% 0.0 mm 0 W/m2
03:48 16.2 °C 15.2 °C 1007.1 hPa Calm     94% 0.0 mm 0 W/m2
03:54 16.2 °C 15.2 °C 1007.1 hPa Calm     94% 0.0 mm 0 W/m2
03:59 16.2 °C 15.2 °C 1007.1 hPa Calm     94% 0.0 mm 0 W/m2
04:04 16.2 °C 15.2 °C 1007.1 hPa Calm     94% 0.0 mm 0 W/m2
04:09 16.1 °C 15.1 °C 1007.1 hPa Calm     94% 0.0 mm 0 W/m2
04:14 16.1 °C 15.1 °C 1007.1 hPa Calm     94% 0.0 mm 0 W/m2
04:19 16.1 °C 15.1 °C 1007.5 hPa Calm     94% 0.0 mm 0 W/m2
04:24 16 °C 15 °C 1007.1 hPa Calm     94% 0.0 mm 0 W/m2
04:29 15.9 °C 14.9 °C 1007.1 hPa Calm     94% 0.0 mm 0 W/m2
04:34 15.9 °C 14.9 °C 1007.1 hPa Calm     94% 0.0 mm 0 W/m2
04:39 15.8 °C 14.8 °C 1007.1 hPa Calm     94% 0.0 mm 0 W/m2
04:44 15.7 °C 14.7 °C 1007.1 hPa Calm     94% 0.0 mm 0 W/m2
04:49 15.7 °C 14.7 °C 1007.1 hPa Calm     94% 0.0 mm 0 W/m2
04:54 15.6 °C 14.6 °C 1007.1 hPa Calm     94% 0.0 mm 0 W/m2
04:59 15.6 °C 14.6 °C 1007.1 hPa Calm     94% 0.0 mm 0 W/m2
05:04 15.5 °C 14.5 °C 1007.1 hPa Calm     94% 0.0 mm 0 W/m2
05:09 15.5 °C 14.5 °C 1007.1 hPa Calm     94% 0.0 mm 0 W/m2
05:14 15.4 °C 14.4 °C 1007.1 hPa Calm     94% 0.0 mm 0 W/m2
05:19 15.4 °C 14.4 °C 1007.1 hPa Calm     94% 0.0 mm 0 W/m2
05:24 15.4 °C 14.4 °C 1007.1 hPa Calm     94% 0.0 mm 0 W/m2
05:29 15.4 °C 14.4 °C 1007.1 hPa Calm     94% 0.0 mm 0 W/m2
05:34 15.3 °C 14.3 °C 1007.1 hPa Calm     94% 0.0 mm 0 W/m2
05:39 15.3 °C 14.3 °C 1007.1 hPa Calm     94% 0.0 mm 0 W/m2
05:44 15.3 °C 14.3 °C 1007.1 hPa Calm     94% 0.0 mm 0 W/m2
05:49 15.2 °C 14.4 °C 1007.1 hPa Calm     95% 0.0 mm 0 W/m2
05:54 15.2 °C 14.2 °C 1007.5 hPa Calm     94% 0.0 mm 0 W/m2
05:59 15.2 °C 14.2 °C 1007.1 hPa Calm     94% 0.0 mm 0 W/m2
06:04 15.2 °C 14.2 °C 1007.1 hPa Calm     94% 0.0 mm 0 W/m2
06:09 15.1 °C 14.1 °C 1007.5 hPa Calm     94% 0.0 mm 0 W/m2
06:14 15.1 °C 14.3 °C 1007.5 hPa Calm     95% 0.0 mm 0 W/m2
06:19 15 °C 14.2 °C 1007.5 hPa Calm     95% 0.0 mm 0 W/m2
06:24 15 °C 14.2 °C 1007.1 hPa Calm     95% 0.0 mm 0 W/m2
06:29 14.9 °C 14.1 °C 1007.1 hPa Calm     95% 0.0 mm 0 W/m2
06:34 14.9 °C 14.1 °C 1007.5 hPa Calm     95% 0.0 mm 5 W/m2
06:39 14.9 °C 14.1 °C 1007.5 hPa Calm     95% 0.0 mm 7 W/m2
06:44 14.9 °C 14.1 °C 1007.5 hPa Calm     95% 0.0 mm 11 W/m2
06:49 14.9 °C 14.1 °C 1007.5 hPa Calm     95% 0.0 mm 12 W/m2
06:54 14.9 °C 14.1 °C 1007.5 hPa Calm     95% 0.0 mm 14 W/m2
06:59 14.9 °C 14.1 °C 1007.5 hPa Calm     95% 0.0 mm 18 W/m2
07:04 14.9 °C 14.1 °C 1007.5 hPa Calm     95% 0.0 mm 19 W/m2
07:09 15.1 °C 14.3 °C 1007.5 hPa Calm     95% 0.0 mm 25 W/m2
07:14 15.1 °C 14.3 °C 1007.5 hPa Calm     95% 0.0 mm 28 W/m2
07:19 15.1 °C 14.3 °C 1007.8 hPa Calm     95% 0.0 mm 30 W/m2
07:24 15.2 °C 14.4 °C 1007.8 hPa Calm     95% 0.0 mm 33 W/m2
07:29 15.3 °C 14.5 °C 1007.8 hPa Calm     95% 0.0 mm 39 W/m2
07:34 15.4 °C 14.8 °C 1007.8 hPa Calm   1.6 km/h 96% 0.0 mm 40 W/m2
07:39 15.4 °C 14.8 °C 1007.8 hPa NW 1.4 km/h 3.2 km/h 96% 0.0 mm 62 W/m2
07:44 15.6 °C 15 °C 1007.8 hPa NW 1.4 km/h 1.6 km/h 96% 0.0 mm 90 W/m2
07:49 15.7 °C 14.9 °C 1007.8 hPa Calm   1.6 km/h 95% 0.0 mm 84 W/m2
07:54 15.9 °C 15.3 °C 1007.8 hPa Calm     96% 0.0 mm 116 W/m2
07:59 16.1 °C 15.3 °C 1007.8 hPa Calm   1.6 km/h 95% 0.0 mm 128 W/m2
08:04 16.2 °C 15.4 °C 1007.8 hPa Calm   3.2 km/h 95% 0.0 mm 137 W/m2
08:09 16.5 °C 15.7 °C 1007.8 hPa Calm     95% 0.0 mm 111 W/m2
08:14 16.7 °C 15.9 °C 1007.8 hPa Calm   3.2 km/h 95% 0.0 mm 72 W/m2
08:19 16.8 °C 15.8 °C 1007.8 hPa Calm     94% 0.0 mm 60 W/m2
08:24 17.3 °C 16.3 °C 1007.8 hPa Calm   3.2 km/h 94% 0.0 mm 58 W/m2
08:29 17.6 °C 16.5 °C 1008.1 hPa Calm   1.6 km/h 93% 0.0 mm 54 W/m2
08:34 17.9 °C 16.4 °C 1007.8 hPa Calm   3.2 km/h 91% 0.0 mm 53 W/m2
08:39 18.4 °C 16.7 °C 1007.8 hPa Calm     90% 0.0 mm 49 W/m2
08:44 18.9 °C 17 °C 1007.8 hPa Calm   3.2 km/h 89% 0.0 mm 49 W/m2
08:49 19.4 °C 17.2 °C 1007.8 hPa Calm   1.6 km/h 87% 0.0 mm 49 W/m2
08:54 19.6 °C 17.2 °C 1007.8 hPa East 4.7 km/h 4.8 km/h 86% 0.0 mm 49 W/m2
08:59 19.8 °C 17.2 °C 1007.8 hPa NE 1.4 km/h 3.2 km/h 85% 0.0 mm 54 W/m2
09:04 20 °C 17 °C 1007.8 hPa NNE 3.2 km/h 6.4 km/h 83% 0.0 mm 65 W/m2
09:09 19.9 °C 17.1 °C 1007.8 hPa Calm   3.2 km/h 84% 0.0 mm 83 W/m2
09:14 19.9 °C 17.1 °C 1007.8 hPa NE 6.4 km/h 8 km/h 84% 0.0 mm 104 W/m2
09:19 20.1 °C 17.3 °C 1008.1 hPa ENE 3.2 km/h 6.4 km/h 84% 0.0 mm 125 W/m2
09:24 20.2 °C 17.4 °C 1008.1 hPa NE 1.4 km/h 6.4 km/h 84% 0.0 mm 125 W/m2
09:29 20.3 °C 17.3 °C 1008.1 hPa NE 4.7 km/h 9.7 km/h 83% 0.0 mm 137 W/m2
09:34 20.3 °C 17.5 °C 1008.1 hPa NE 3.2 km/h 4.8 km/h 84% 0.0 mm 272 W/m2
09:39 20.5 °C 17.5 °C 1008.1 hPa ESE 3.2 km/h 6.4 km/h 83% 0.0 mm 156 W/m2
09:44 20.7 °C 17.7 °C 1008.1 hPa Calm   4.8 km/h 83% 0.0 mm 176 W/m2
09:49 20.8 °C 17.8 °C 1008.1 hPa NE 1.4 km/h 11.3 km/h 83% 0.0 mm 167 W/m2
09:54 21 °C 17.8 °C 1008.1 hPa ESE 4.7 km/h 6.4 km/h 82% 0.0 mm 181 W/m2
09:59 21.3 °C 17.9 °C 1008.1 hPa Calm   4.8 km/h 81% 0.0 mm 176 W/m2
10:04 21.4 °C 17.8 °C 1008.1 hPa SE 3.2 km/h 6.4 km/h 80% 0.0 mm 199 W/m2
10:09 21.6 °C 18 °C 1008.1 hPa East 1.4 km/h 6.4 km/h 80% 0.0 mm 202 W/m2
10:14 21.5 °C 17.7 °C 1008.1 hPa ESE 3.2 km/h 6.4 km/h 79% 0.0 mm 251 W/m2
10:19 21.6 °C 18 °C 1008.1 hPa NE 1.4 km/h 6.4 km/h 80% 0.0 mm 406 W/m2
10:24 21.7 °C 17.9 °C 1008.1 hPa ENE 1.4 km/h 6.4 km/h 79% 0.0 mm 381 W/m2
10:29 21.9 °C 17.9 °C 1008.1 hPa SE 1.4 km/h 9.7 km/h 78% 0.0 mm 387 W/m2
10:34 22 °C 17.8 °C 1008.1 hPa Calm   3.2 km/h 77% 0.0 mm 408 W/m2
10:39 22.1 °C 17.9 °C 1008.1 hPa NNW 6.4 km/h 8 km/h 77% 0.0 mm 489 W/m2
10:44 22.3 °C 18.1 °C 1008.1 hPa SE 3.2 km/h 8 km/h 77% 0.0 mm 621 W/m2
10:49 22.5 °C 18.1 °C 1008.1 hPa East 1.4 km/h 6.4 km/h 76% 0.0 mm 635 W/m2
10:54 22.8 °C 18.1 °C 1008.1 hPa East 3.2 km/h 8 km/h 75% 0.0 mm 624 W/m2
10:59 23.2 °C 18.3 °C 1008.1 hPa NNW 3.2 km/h 4.8 km/h 74% 0.0 mm 582 W/m2
11:04 23.2 °C 17.9 °C 1008.1 hPa NW 3.2 km/h 8 km/h 72% 0.0 mm 635 W/m2
11:09 23.2 °C 17.6 °C 1008.1 hPa WNW 6.4 km/h 11.3 km/h 71% 0.0 mm 636 W/m2
11:14 23.1 °C 17.8 °C 1008.1 hPa SW 1.4 km/h 3.2 km/h 72% 0.0 mm 638 W/m2
11:19 23.2 °C 17.6 °C 1008.1 hPa Calm   11.3 km/h 71% 0.0 mm 689 W/m2
11:24 23.7 °C 17.9 °C 1008.1 hPa East 1.4 km/h 3.2 km/h 70% 0.0 mm 691 W/m2
11:29 24.2 °C 18.2 °C 1008.1 hPa ENE 3.2 km/h 8 km/h 69% 0.0 mm 691 W/m2
11:34 24.3 °C 18.5 °C 1008.1 hPa East 3.2 km/h 6.4 km/h 70% 0.0 mm 731 W/m2
11:40 24.6 °C 18.5 °C 1008.1 hPa South 1.4 km/h 8 km/h 69% 0.0 mm 726 W/m2
11:50 24.9 °C 18.1 °C 1008.1 hPa East 6.4 km/h 9.7 km/h 66% 0.0 mm 656 W/m2
11:55 24.8 °C 17.8 °C 1008.1 hPa West 4.7 km/h 9.7 km/h 65% 0.0 mm 640 W/m2
12:00 24.8 °C 18.3 °C 1008.1 hPa East 4.7 km/h 4.8 km/h 67% 0.0 mm 137 W/m2
12:05 24.8 °C 18 °C 1008.5 hPa East 1.4 km/h 8 km/h 66% 0.0 mm 137 W/m2
12:15 24.6 °C 17.8 °C 1008.5 hPa Calm   3.2 km/h 66% 0.0 mm 239 W/m2
12:20 24.6 °C 17.8 °C 1008.1 hPa NW 3.2 km/h 3.2 km/h 66% 0.0 mm 838 W/m2
12:25 24.9 °C 17.1 °C 1008.1 hPa Calm   3.2 km/h 62% 0.0 mm 213 W/m2
12:30 25.1 °C 17 °C 1008.1 hPa West 3.2 km/h 4.8 km/h 61% 0.0 mm 387 W/m2
12:35 25.1 °C 17 °C 1008.5 hPa NW 4.7 km/h 4.8 km/h 61% 0.0 mm 258 W/m2
12:40 25.1 °C 17.3 °C 1008.5 hPa East 4.7 km/h 6.4 km/h 62% 0.0 mm 635 W/m2
12:45 25.5 °C 17.7 °C 1008.5 hPa East 6.4 km/h 6.4 km/h 62% 0.0 mm 714 W/m2
12:50 25.8 °C 17.7 °C 1008.5 hPa WSW 4.7 km/h 4.8 km/h 61% 0.0 mm 893 W/m2
12:55 26.2 °C 17.6 °C 1008.5 hPa NNW 1.4 km/h 3.2 km/h 59% 0.0 mm 821 W/m2
13:00 26.4 °C 16.9 °C 1008.5 hPa NE 3.2 km/h 9.7 km/h 56% 0.0 mm 668 W/m2
13:05 26.3 °C 17.1 °C 1008.5 hPa SSE 1.4 km/h 6.4 km/h 57% 0.0 mm 782 W/m2
13:10 26.6 °C 17.4 °C 1008.5 hPa NW 4.7 km/h 9.7 km/h 57% 0.0 mm 749 W/m2
13:15 26.8 °C 17.3 °C 1008.5 hPa East 3.2 km/h 6.4 km/h 56% 0.0 mm 793 W/m2
13:20 26.9 °C 17.1 °C 1008.5 hPa SSE 1.4 km/h 6.4 km/h 55% 0.0 mm 717 W/m2
13:25 26.8 °C 17 °C 1008.5 hPa NE 4.7 km/h 8 km/h 55% 0.0 mm 693 W/m2
13:30 26.8 °C 17 °C 1008.5 hPa ENE 4.7 km/h 12.9 km/h 55% 0.0 mm 631 W/m2
13:35 26.8 °C 17 °C 1008.5 hPa ENE 6.4 km/h 11.3 km/h 55% 0.0 mm 643 W/m2
13:40 26.7 °C 16.3 °C 1008.5 hPa Calm   12.9 km/h 53% 0.0 mm 596 W/m2
13:45 26.8 °C 16.7 °C 1008.5 hPa NE 4.7 km/h 4.8 km/h 54% 0.0 mm 789 W/m2
13:50 27.1 °C 16.7 °C 1008.5 hPa East 3.2 km/h 9.7 km/h 53% 0.0 mm 777 W/m2
13:55 27.2 °C 16.8 °C 1008.1 hPa Calm   6.4 km/h 53% 0.0 mm 795 W/m2
14:00 27.2 °C 17.1 °C 1008.1 hPa ENE 9.7 km/h 11.3 km/h 54% 0.0 mm 566 W/m2
14:05 27.2 °C 16.8 °C 1008.1 hPa ESE 3.2 km/h 11.3 km/h 53% 0.0 mm 744 W/m2
14:10 27.1 °C 16.4 °C 1008.1 hPa NNW 6.4 km/h 6.4 km/h 52% 0.0 mm 677 W/m2
14:15 27.1 °C 16.7 °C 1008.1 hPa ESE 3.2 km/h 4.8 km/h 53% 0.0 mm 459 W/m2
14:20 27.2 °C 16.5 °C 1008.1 hPa SW 4.7 km/h 4.8 km/h 52% 0.0 mm 633 W/m2
14:25 27.2 °C 16.5 °C 1008.1 hPa East 4.7 km/h 8 km/h 52% 0.0 mm 773 W/m2
14:35 27.6 °C 16.9 °C 1008.1 hPa SE 4.7 km/h 6.4 km/h 52% 0.0 mm 719 W/m2
14:40 27.7 °C 16.6 °C 1008.1 hPa Calm   4.8 km/h 51% 0.0 mm 775 W/m2
14:45 27.9 °C 16.8 °C 1008.1 hPa NNE 3.2 km/h 8 km/h 51% 0.0 mm 731 W/m2
14:50 28.1 °C 16.7 °C 1008.1 hPa NNE 1.4 km/h 8 km/h 50% 0.0 mm 661 W/m2
14:55 27.9 °C 16.5 °C 1008.1 hPa ENE 7.9 km/h 11.3 km/h 50% 0.0 mm 830 W/m2
15:00 27.7 °C 16.3 °C 1008.1 hPa ENE 3.2 km/h 6.4 km/h 50% 0.0 mm 840 W/m2
15:05 27.5 °C 16.8 °C 1008.1 hPa SE 9.7 km/h 9.7 km/h 52% 0.0 mm 740 W/m2
15:10 27.6 °C 16.6 °C 1008.1 hPa Calm   3.2 km/h 51% 0.0 mm 796 W/m2
15:15 27.8 °C 16.4 °C 1008.1 hPa ESE 1.4 km/h 4.8 km/h 50% 0.0 mm 202 W/m2
15:20 27.8 °C 16.4 °C 1008.1 hPa East 4.7 km/h 9.7 km/h 50% 0.0 mm 722 W/m2
15:25 28 °C 16.6 °C 1008.1 hPa East 7.9 km/h 11.3 km/h 50% 0.0 mm 805 W/m2
15:30 28.2 °C 16.5 °C 1008.1 hPa ESE 1.4 km/h 4.8 km/h 49% 0.0 mm 796 W/m2
15:35 28.2 °C 16.5 °C 1008.1 hPa ESE 4.7 km/h 6.4 km/h 49% 0.0 mm 710 W/m2
15:40 28.3 °C 16.2 °C 1008.1 hPa Calm   3.2 km/h 48% 0.0 mm 742 W/m2
15:45 28.3 °C 15.9 °C 1008.1 hPa North 1.4 km/h 3.2 km/h 47% 0.0 mm 802 W/m2
15:50 28.4 °C 16.3 °C 1008.1 hPa North 1.4 km/h 4.8 km/h 48% 0.0 mm 468 W/m2
15:55 28.6 °C 16.5 °C 1007.8 hPa East 3.2 km/h 8 km/h 48% 0.0 mm 751 W/m2
16:01 28.7 °C 16.3 °C 1007.8 hPa SW 1.4 km/h 4.8 km/h 47% 0.0 mm 670 W/m2
16:06 28.8 °C 16.7 °C 1007.8 hPa ESE 4.7 km/h 4.8 km/h 48% 0.0 mm 589 W/m2
16:11 28.9 °C 16.1 °C 1007.8 hPa East 11.1 km/h 11.3 km/h 46% 0.0 mm 729 W/m2
16:16 28.9 °C 16.5 °C 1007.8 hPa SE 3.2 km/h 11.3 km/h 47% 0.0 mm 675 W/m2
16:21 29.1 °C 16.3 °C 1007.8 hPa ENE 3.2 km/h 4.8 km/h 46% 0.0 mm 712 W/m2
16:26 29.3 °C 16.1 °C 1007.8 hPa SE 1.4 km/h 11.3 km/h 45% 0.0 mm 705 W/m2
16:31 29.3 °C 16.1 °C 1007.8 hPa ENE 6.4 km/h 9.7 km/h 45% 0.0 mm 671 W/m2
16:36 29.1 °C 16.3 °C 1007.8 hPa ENE 1.4 km/h 4.8 km/h 46% 0.0 mm 148 W/m2
16:41 28.8 °C 16 °C 1007.8 hPa East 1.4 km/h 4.8 km/h 46% 0.0 mm 167 W/m2
16:46 28.6 °C 15.8 °C 1007.8 hPa ESE 1.4 km/h 4.8 km/h 46% 0.0 mm 162 W/m2
16:51 28.3 °C 15.9 °C 1007.8 hPa Calm   3.2 km/h 47% 0.0 mm 174 W/m2
16:56 28 °C 15.6 °C 1007.5 hPa Calm   4.8 km/h 47% 0.0 mm 153 W/m2
17:01 27.9 °C 15.5 °C 1007.5 hPa ESE 3.2 km/h 3.2 km/h 47% 0.0 mm 584 W/m2
17:06 28.1 °C 15.7 °C 1007.5 hPa North 3.2 km/h 3.2 km/h 47% 0.0 mm 267 W/m2
17:11 28.2 °C 15.1 °C 1007.5 hPa Calm   4.8 km/h 45% 0.0 mm 155 W/m2
17:16 28.2 °C 15.5 °C 1007.5 hPa Calm   3.2 km/h 46% 0.0 mm 130 W/m2
17:21 28.2 °C 15.8 °C 1007.5 hPa NNE 1.4 km/h 4.8 km/h 47% 0.0 mm 570 W/m2
17:26 28.5 °C 15.4 °C 1007.5 hPa WSW 1.4 km/h 9.7 km/h 45% 0.0 mm 534 W/m2
17:31 28.8 °C 15.7 °C 1007.5 hPa ESE 3.2 km/h 11.3 km/h 45% 0.0 mm 487 W/m2
17:36 28.9 °C 15.4 °C 1007.5 hPa North 1.4 km/h 6.4 km/h 44% 0.0 mm 454 W/m2
17:41 28.9 °C 16.1 °C 1007.5 hPa East 1.4 km/h 11.3 km/h 46% 0.0 mm 476 W/m2
17:46 29.2 °C 15.7 °C 1007.5 hPa Calm   1.6 km/h 44% 0.0 mm 434 W/m2
17:51 29.6 °C 15.7 °C 1007.5 hPa Calm   6.4 km/h 43% 0.0 mm 438 W/m2
17:56 29.7 °C 15.8 °C 1007.5 hPa Calm   3.2 km/h 43% 0.0 mm 410 W/m2
18:01 29.8 °C 15.9 °C 1007.5 hPa East 3.2 km/h 4.8 km/h 43% 0.0 mm 443 W/m2
18:06 29.8 °C 15.5 °C 1007.5 hPa Calm   3.2 km/h 42% 0.0 mm 411 W/m2
18:11 30 °C 15.3 °C 1007.5 hPa Calm   3.2 km/h 41% 0.0 mm 371 W/m2
18:16 30.2 °C 15.5 °C 1007.5 hPa SSW 1.4 km/h 1.6 km/h 41% 0.0 mm 406 W/m2
18:21 30.5 °C 15.4 °C 1007.5 hPa West 4.7 km/h 6.4 km/h 40% 0.0 mm 403 W/m2
18:26 30.2 °C 15.1 °C 1007.5 hPa East 1.4 km/h 4.8 km/h 40% 0.0 mm 373 W/m2
18:31 30.2 °C 14.7 °C 1007.1 hPa NNW 3.2 km/h 3.2 km/h 39% 0.0 mm 345 W/m2
18:36 30 °C 14.9 °C 1007.1 hPa WSW 1.4 km/h 4.8 km/h 40% 0.0 mm 329 W/m2
18:41 29.8 °C 14.7 °C 1007.1 hPa Calm     40% 0.0 mm 127 W/m2
18:46 29.9 °C 14.8 °C 1007.1 hPa Calm   1.6 km/h 40% 0.0 mm 156 W/m2
18:51 30.1 °C 15.4 °C 1007.1 hPa Calm   3.2 km/h 41% 0.0 mm 84 W/m2
18:56 29.8 °C 15.9 °C 1007.1 hPa South 1.4 km/h 4.8 km/h 43% 0.0 mm 125 W/m2
19:01 29.6 °C 15.7 °C 1007.1 hPa East 1.4 km/h 6.4 km/h 43% 0.0 mm 243 W/m2
19:06 29.4 °C 15.5 °C 1007.1 hPa ESE 1.4 km/h 4.8 km/h 43% 0.0 mm 188 W/m2
19:11 29.4 °C 15.9 °C 1007.1 hPa Calm   3.2 km/h 44% 0.0 mm 179 W/m2
19:16 29.3 °C 15.4 °C 1007.1 hPa Calm   1.6 km/h 43% 0.0 mm 127 W/m2
19:21 29.3 °C 15.8 °C 1007.1 hPa Calm   1.6 km/h 44% 0.0 mm 49 W/m2
19:26 29.3 °C 15.8 °C 1006.8 hPa Calm   1.6 km/h 44% 0.0 mm 46 W/m2
19:31 29.2 °C 16.4 °C 1006.8 hPa Calm   1.6 km/h 46% 0.0 mm 46 W/m2
19:36 28.9 °C 16.5 °C 1006.8 hPa Calm     47% 0.0 mm 44 W/m2
19:41 28.6 °C 16.5 °C 1006.8 hPa Calm     48% 0.0 mm 39 W/m2
19:46 28.2 °C 16.1 °C 1006.8 hPa Calm     48% 0.0 mm 37 W/m2
19:51 27.9 °C 16.5 °C 1006.8 hPa Calm     50% 0.0 mm 40 W/m2
19:56 27.5 °C 16.5 °C 1006.8 hPa Calm     51% 0.0 mm 42 W/m2
20:01 27.2 °C 16.2 °C 1006.8 hPa Calm   1.6 km/h 51% 0.0 mm 30 W/m2
20:06 26.8 °C 16.1 °C 1006.8 hPa Calm   1.6 km/h 52% 0.0 mm 28 W/m2
20:11 26.5 °C 16.1 °C 1006.8 hPa SE 3.2 km/h 3.2 km/h 53% 0.0 mm 30 W/m2
20:16 26.2 °C 16.2 °C 1006.8 hPa Calm     54% 0.0 mm 26 W/m2
20:21 26 °C 16 °C 1007.1 hPa SE 1.4 km/h 3.2 km/h 54% 0.0 mm 25 W/m2
20:26 25.8 °C 16.1 °C 1007.1 hPa SE 1.4 km/h 1.6 km/h 55% 0.0 mm 19 W/m2
20:31 25.6 °C 16.2 °C 1007.1 hPa Calm     56% 0.0 mm 12 W/m2
20:36 25.4 °C 16.3 °C 1007.1 hPa Calm     57% 0.0 mm 5 W/m2
20:41 25.2 °C 15.8 °C 1007.1 hPa SE 1.4 km/h 3.2 km/h 56% 0.0 mm 0 W/m2
20:46 25 °C 15.6 °C 1007.1 hPa SE 1.4 km/h 3.2 km/h 56% 0.0 mm 0 W/m2
20:51 24.8 °C 15.7 °C 1007.1 hPa Calm     57% 0.0 mm 0 W/m2
20:56 24.6 °C 15.5 °C 1007.1 hPa Calm   3.2 km/h 57% 0.0 mm 0 W/m2
21:01 24.4 °C 15.6 °C 1007.5 hPa Calm     58% 0.0 mm 0 W/m2
21:06 24.2 °C 15.4 °C 1007.5 hPa Calm     58% 0.0 mm 0 W/m2
21:11 24.1 °C 15.6 °C 1007.5 hPa Calm     59% 0.0 mm 0 W/m2
21:16 23.8 °C 15.3 °C 1007.5 hPa Calm     59% 0.0 mm 0 W/m2
21:21 23.7 °C 15.7 °C 1007.5 hPa Calm     61% 0.0 mm 0 W/m2
21:26 23.5 °C 15.8 °C 1007.5 hPa Calm     62% 0.0 mm 0 W/m2
21:31 23.3 °C 15.4 °C 1007.8 hPa Calm     61% 0.0 mm 0 W/m2
21:36 23.2 °C 15.5 °C 1007.8 hPa SE 1.4 km/h 1.6 km/h 62% 0.0 mm 0 W/m2
21:41 22.9 °C 15.5 °C 1007.8 hPa Calm     63% 0.0 mm 0 W/m2
21:46 22.8 °C 15.6 °C 1007.8 hPa Calm     64% 0.0 mm 0 W/m2
21:51 22.6 °C 15.4 °C 1007.8 hPa Calm     64% 0.0 mm 0 W/m2
21:56 22.4 °C 15.3 °C 1007.8 hPa Calm     64% 0.0 mm 0 W/m2
22:01 22.3 °C 15.4 °C 1008.1 hPa Calm     65% 0.0 mm 0 W/m2
22:07 22.2 °C 15.3 °C 1008.1 hPa SE 3.2 km/h 3.2 km/h 65% 0.0 mm 0 W/m2
22:12 22.1 °C 15.2 °C 1008.1 hPa Calm     65% 0.0 mm 0 W/m2
22:17 22 °C 15.1 °C 1008.1 hPa SE 1.4 km/h 3.2 km/h 65% 0.0 mm 0 W/m2
22:22 21.9 °C 15.3 °C 1008.1 hPa Calm   1.6 km/h 66% 0.0 mm 0 W/m2
22:27 21.9 °C 15.5 °C 1008.1 hPa Calm   3.2 km/h 67% 0.0 mm 0 W/m2
22:32 21.8 °C 15.4 °C 1008.1 hPa Calm   1.6 km/h 67% 0.0 mm 0 W/m2
22:37 21.7 °C 15.5 °C 1008.1 hPa SSW 1.4 km/h 3.2 km/h 68% 0.0 mm 0 W/m2
22:42 21.6 °C 15.4 °C 1008.1 hPa Calm     68% 0.0 mm 0 W/m2
22:47 21.4 °C 15.5 °C 1008.1 hPa Calm     69% 0.0 mm 0 W/m2
22:52 21.3 °C 15.4 °C 1008.1 hPa Calm     69% 0.0 mm 0 W/m2
22:57 21.2 °C 15.3 °C 1008.1 hPa Calm     69% 0.0 mm 0 W/m2
23:02 21.1 °C 15.2 °C 1008.1 hPa Calm     69% 0.0 mm 0 W/m2
23:07 21.1 °C 15.2 °C 1008.1 hPa Calm     69% 0.0 mm 0 W/m2
23:12 21 °C 15.1 °C 1008.1 hPa Calm     69% 0.0 mm 0 W/m2
23:17 20.9 °C 15.2 °C 1008.1 hPa Calm     70% 0.0 mm 0 W/m2
23:22 20.9 °C 15.2 °C 1008.1 hPa Calm     70% 0.0 mm 0 W/m2
23:27 20.8 °C 15.1 °C 1008.1 hPa Calm     70% 0.0 mm 0 W/m2
23:32 20.8 °C 15.1 °C 1007.8 hPa Calm     70% 0.0 mm 0 W/m2
23:37 20.7 °C 15 °C 1008.1 hPa Calm     70% 0.0 mm 0 W/m2
23:42 20.6 °C 15.2 °C 1008.1 hPa Calm     71% 0.0 mm 0 W/m2
23:47 20.5 °C 15.1 °C 1008.1 hPa Calm     71% 0.0 mm 0 W/m2
23:52 20.4 °C 15.2 °C 1008.1 hPa SW 1.4 km/h 1.6 km/h 72% 0.0 mm 0 W/m2
23:57 20.3 °C 15.1 °C 1008.1 hPa Calm     72% 0.0 mm 0 W/m2
Juneau County Weather
Compliments of Weather Underground - 4 mb